Time;durP1;ratioP1;P1;durP2;ratioP2;P2;SDS_P1;SDS_P2;PMS_P1;PMS_P2;Temp;Humidity;BMP_temperature;BMP_pressure;BME280_temperature;BME280_humidity;BME280_pressure;Samples;Min_cycle;Max_cycle;Signal;HPM_P1;HPM_P2
2022/10/04 00:02:22;;;;;;;;;;;13.90;79.60;;;-151.14;100.00;62537.16;4177575;34;19904;-85
2022/10/04 00:04:56;;;;;;;;;;;14.00;79.60;;;-151.14;100.00;62537.16;4153879;34;19934;-85
2022/10/04 00:07:26;;;;;;;;;;;13.90;79.60;;;-151.14;100.00;62537.16;4176582;34;19903;-85
2022/10/04 00:09:58;;;;;;;;;;;13.90;79.70;;;12.99;100.00;62537.16;4153817;34;20135;-85
2022/10/04 00:12:29;;;;;;;;;;;13.90;79.50;;;-151.14;100.00;62537.16;4176512;34;19911;-85
2022/10/04 00:15:00;;;;;;;;;;;13.90;79.60;;;-151.14;100.00;62537.16;4177345;34;19912;-85
2022/10/04 00:17:30;;;;;;;;;;;13.90;79.50;;;;;;4153636;34;20130;-85
2022/10/04 00:19:59;;;;;;;;;;;13.90;79.60;;;-151.14;100.00;62537.16;4177141;34;19988;-85
2022/10/04 00:22:28;;;;;;;;;;;13.90;79.60;;;13.02;100.00;62537.16;4152952;34;19933;-85
2022/10/04 00:25:33;;;;;;;;;;;13.90;79.50;;;12.99;100.00;62537.16;4176334;34;20100;-85
2022/10/04 00:28:31;;;;;;;;;;;14.00;79.50;;;12.99;100.00;62537.16;4153244;34;20000;-85
2022/10/04 00:31:18;;;;;;;;;;;13.90;79.70;;;-151.14;100.00;62537.16;4153444;34;19903;-85
2022/10/04 00:33:48;;;;;;;;;;;13.90;79.70;;;12.98;100.00;62537.16;4176474;34;19903;-85
2022/10/04 00:36:53;;;;;;;;;;;13.90;79.60;;;12.97;100.00;62537.16;4153640;34;19992;-85
2022/10/04 00:39:42;;;;;;;;;;;13.90;79.60;;;-151.14;100.00;62537.16;4153223;34;20253;-85
2022/10/04 00:42:48;;;;;;;;;;;13.90;80.40;;;12.98;100.00;62537.16;4175775;34;19910;-85
2022/10/04 00:45:29;;;;;;;;;;;13.90;79.60;;;-151.14;100.00;62537.16;4177078;34;20003;-85
2022/10/04 00:48:40;;;;;;;;;;;13.90;79.70;;;-151.14;100.00;62537.16;4176746;34;19910;-85
2022/10/04 00:51:14;;;;;;;;;;;13.90;79.60;;;12.97;100.00;62537.16;4175828;34;19904;-85
2022/10/04 00:53:51;;;;;;;;;;;13.90;79.60;;;-151.14;100.00;62537.16;4177114;34;19904;-85
2022/10/04 00:56:24;;;;;;;;;;;13.90;79.70;;;12.96;100.00;62537.16;4153197;34;20004;-85
2022/10/04 00:59:25;;;;;;;;;;;13.90;79.70;;;12.96;100.00;62537.16;4175586;34;19904;-85
2022/10/04 01:01:56;;;;;;;;;;;13.90;79.70;;;-151.14;100.00;62537.16;4198888;34;19904;-85
2022/10/04 01:04:31;;;;;;;;;;;13.90;79.70;;;-151.14;100.00;62537.16;4175944;34;20129;-85
2022/10/04 01:07:00;;;;;;;;;;;13.90;79.70;;;-151.14;100.00;62537.16;4175824;34;19904;-86
2022/10/04 01:09:28;;;;;;;;;;;13.90;79.60;;;12.95;100.00;62537.16;4198270;34;20013;-85
2022/10/04 01:12:00;;;;;;;;;;;13.90;79.60;;;-151.14;100.00;62537.16;4152810;34;19973;-85
2022/10/04 01:14:38;;;;;;;;;;;13.90;79.60;;;-151.14;100.00;62537.16;4199031;34;20219;-85
2022/10/04 01:17:08;;;;;;;;;;;13.90;79.70;;;-151.14;100.00;62537.16;4153143;34;20222;-85
2022/10/04 01:19:40;;;;;;;;;;;13.90;79.70;;;-151.14;100.00;62537.16;4175270;34;19918;-85
2022/10/04 01:22:14;;;;;;;;;;;13.90;79.80;;;-151.14;100.00;62537.16;4153211;34;20227;-85
2022/10/04 01:24:44;;;;;;;;;;;13.90;79.60;;;-151.14;100.00;62537.16;4152948;34;19989;-86
2022/10/04 01:27:35;;;;;;;;;;;13.90;79.70;;;12.95;100.00;62537.16;4153041;34;19985;-85
2022/10/04 01:30:08;;;;;;;;;;;13.90;79.70;;;12.94;100.00;82900.00;4153051;34;19903;-85
2022/10/04 01:32:37;;;;;;;;;;;13.90;79.70;;;-151.14;100.00;62537.16;4176411;34;19904;-85
2022/10/04 01:35:08;;;;;;;;;;;13.90;79.70;;;12.93;100.00;62537.16;4153066;34;19908;-85
2022/10/04 01:37:39;;;;;;;;;;;13.90;79.80;;;12.93;100.00;62537.16;4175292;34;19911;-86
2022/10/04 01:40:10;;;;;;;;;;;13.90;79.80;;;12.93;100.00;62537.16;4175662;34;20193;-85
2022/10/04 01:42:43;;;;;;;;;;;13.80;79.60;;;-151.14;100.00;62537.16;4198424;34;19974;-86
2022/10/04 01:45:17;;;;;;;;;;;13.80;79.60;;;12.92;100.00;62537.16;4198514;34;20203;-85
2022/10/04 01:47:51;;;;;;;;;;;13.80;79.60;;;-151.14;100.00;62537.16;4174629;34;23726;-85
2022/10/04 01:50:23;;;;;;;;;;;13.80;79.60;;;-151.14;100.00;62537.16;4175445;34;19903;-85
2022/10/04 01:52:54;;;;;;;;;;;13.80;79.70;;;-151.14;100.00;62537.16;4198451;34;20130;-86
2022/10/04 01:55:25;;;;;;;;;;;13.80;79.60;;;-151.14;100.00;62537.16;4175368;34;20172;-85
2022/10/04 01:57:56;;;;;;;;;;;13.90;79.80;;;;;;4175042;34;19942;-85
2022/10/04 02:00:25;;;;;;;;;;;13.80;79.60;;;12.92;100.00;62537.16;4152673;34;19929;-86
2022/10/04 02:02:55;;;;;;;;;;;13.80;79.70;;;12.89;100.00;62537.16;4175232;34;20207;-85
2022/10/04 02:05:28;;;;;;;;;;;13.80;79.60;;;12.88;100.00;62537.16;4152560;34;19907;-85
2022/10/04 02:07:57;;;;;;;;;;;13.80;79.60;;;-151.14;100.00;62537.16;4198024;34;19904;-85
2022/10/04 02:10:27;;;;;;;;;;;13.80;79.70;;;12.88;100.00;62537.16;4152585;34;19904;-86
2022/10/04 02:12:56;;;;;;;;;;;13.80;79.70;;;-151.14;100.00;62537.16;4152694;34;20215;-85
2022/10/04 02:15:25;;;;;;;;;;;13.80;79.70;;;12.89;100.00;62537.16;4175483;34;20007;-85
2022/10/04 02:17:54;;;;;;;;;;;13.80;79.70;;;12.87;100.00;62537.16;4174633;34;20005;-86
2022/10/04 02:20:24;;;;;;;;;;;13.80;79.70;;;-151.14;100.00;62537.16;4175315;34;19904;-85
2022/10/04 02:22:58;;;;;;;;;;;13.80;79.80;;;12.87;100.00;62537.16;4152535;34;19926;-85
2022/10/04 02:25:28;;;;;;;;;;;13.80;79.70;;;-151.14;100.00;62537.16;4198166;34;19903;-85
2022/10/04 02:27:56;;;;;;;;;;;13.80;79.80;;;-151.14;100.00;62537.16;4197885;34;19903;-85
2022/10/04 02:30:25;;;;;;;;;;;13.80;79.70;;;12.87;100.00;62537.16;4152571;34;20005;-85
2022/10/04 02:32:56;;;;;;;;;;;13.80;79.70;;;12.86;100.00;62537.16;4198143;34;20123;-86
2022/10/04 02:35:26;;;;;;;;;;;13.80;79.70;;;12.87;100.00;62537.16;4175151;34;19912;-85
2022/10/04 02:38:04;;;;;;;;;;;13.80;79.80;;;12.87;100.00;62537.16;4152149;34;19904;-85
2022/10/04 02:40:39;;;;;;;;;;;13.80;79.70;;;12.85;100.00;62537.16;4170723;28;19907;-82
2022/10/04 02:43:12;;;;;;;;;;;13.80;79.70;;;12.85;100.00;62537.16;4175882;34;19911;-81
2022/10/04 02:45:46;;;;;;;;;;;13.80;79.80;;;12.85;100.00;62537.16;4154430;34;19910;-81
2022/10/04 02:48:28;;;;;;;;;;;13.80;79.80;;;18.10;100.00;62537.16;4176963;34;20002;-81
2022/10/04 02:50:59;;;;;;;;;;;13.80;79.80;;;12.85;100.00;62537.16;4177696;34;19904;-81
2022/10/04 02:53:42;;;;;;;;;;;13.80;79.90;;;-151.14;100.00;62537.16;4177090;34;20012;-81
2022/10/04 02:56:12;;;;;;;;;;;13.80;79.90;;;12.84;100.00;62537.16;4181447;34;19918;-81
2022/10/04 02:58:41;;;;;;;;;;;13.80;79.80;;;-151.14;100.00;62537.16;4169814;34;19911;-81
2022/10/04 03:01:17;;;;;;;;;;;13.80;79.90;;;-151.14;100.00;62537.16;4193251;34;19903;-81
2022/10/04 03:03:46;;;;;;;;;;;13.80;80.10;;;-151.14;100.00;62537.16;4170338;34;19903;-81
2022/10/04 03:06:17;;;;;;;;;;;13.80;79.90;;;12.84;100.00;62537.16;4170141;34;19926;-81
2022/10/04 03:08:48;;;;;;;;;;;13.70;79.90;;;-151.14;100.00;62537.16;4169819;34;20199;-81
2022/10/04 03:11:21;;;;;;;;;;;13.80;79.80;;;-151.14;100.00;62537.16;4193033;34;19919;-82
2022/10/04 03:13:51;;;;;;;;;;;13.80;79.80;;;-151.14;100.00;62537.16;4170215;34;20207;-82
2022/10/04 03:16:20;;;;;;;;;;;13.80;79.80;;;12.84;100.00;62537.16;4170160;34;19904;-81
2022/10/04 03:18:50;;;;;;;;;;;13.70;79.90;;;-151.14;100.00;62537.16;4169579;34;20110;-82
2022/10/04 03:21:18;;;;;;;;;;;13.80;79.80;;;;;;4192950;34;19903;-82
2022/10/04 03:23:47;;;;;;;;;;;13.80;79.80;;;12.87;100.00;82892.53;4170203;34;19912;-82
2022/10/04 03:26:27;;;;;;;;;;;13.70;79.90;;;-151.14;100.00;62537.16;4170101;34;19911;-82
2022/10/04 03:28:55;;;;;;;;;;;13.70;79.90;;;-151.14;100.00;62537.16;4192323;34;19912;-81
2022/10/04 03:31:25;;;;;;;;;;;13.80;79.80;;;-151.14;100.00;62537.16;4192658;34;19903;-81
2022/10/04 03:33:54;;;;;;;;;;;13.70;79.80;;;-151.14;100.00;62537.16;4170175;34;20203;-81
2022/10/04 03:36:23;;;;;;;;;;;13.70;79.90;;;-151.14;100.00;62537.16;4192707;34;19910;-82
2022/10/04 03:38:55;;;;;;;;;;;13.70;79.80;;;-151.14;100.00;62537.16;4169537;34;19919;-82
2022/10/04 03:41:25;;;;;;;;;;;13.70;79.90;;;-151.14;100.00;62537.16;4192513;34;20110;-82
2022/10/04 03:43:54;;;;;;;;;;;13.80;79.90;;;-151.14;100.00;62537.16;4192480;34;19903;-82
2022/10/04 03:46:23;;;;;;;;;;;13.80;79.90;;;-151.14;100.00;62537.16;4169722;34;20115;-82
2022/10/04 03:48:52;;;;;;;;;;;13.80;79.90;;;-151.14;100.00;62537.16;4192334;34;19904;-82
2022/10/04 03:51:22;;;;;;;;;;;13.70;79.90;;;-151.14;100.00;62537.16;4192376;34;19911;-81
2022/10/04 03:53:52;;;;;;;;;;;13.70;79.90;;;-151.14;100.00;62537.16;4192395;34;19911;-82
2022/10/04 03:56:25;;;;;;;;;;;13.70;79.70;;;-151.14;100.00;62537.16;4169488;34;19904;-82
2022/10/04 03:58:54;;;;;;;;;;;13.70;79.90;;;-151.14;100.00;62537.16;4191866;34;19903;-82
2022/10/04 04:01:34;;;;;;;;;;;13.70;79.90;;;-151.14;100.00;62537.16;4192260;34;19904;-82
2022/10/04 04:04:07;;;;;;;;;;;13.80;79.90;;;-151.14;100.00;62537.16;4192519;34;19904;-82
2022/10/04 04:06:42;;;;;;;;;;;13.70;79.90;;;-151.14;100.00;62537.16;4192298;34;19903;-81
2022/10/04 04:09:17;;;;;;;;;;;13.70;80.00;;;-151.14;100.00;62537.16;4191774;34;19904;-82
2022/10/04 04:11:48;;;;;;;;;;;13.80;80.00;;;-151.14;100.00;62537.16;4193144;34;19903;-82
2022/10/04 04:14:20;;;;;;;;;;;13.70;79.90;;;;;;4192445;34;19910;-81
2022/10/04 04:16:49;;;;;;;;;;;13.70;79.80;;;-151.14;100.00;62537.16;4192306;34;19903;-81
2022/10/04 04:19:18;;;;;;;;;;;13.70;79.80;;;-151.14;100.00;62537.16;4191783;34;20222;-81
2022/10/04 04:21:46;;;;;;;;;;;13.70;79.90;;;-151.14;100.00;62537.16;4215176;34;20203;-82
2022/10/04 04:24:22;;;;;;;;;;;13.70;80.00;;;-151.14;100.00;62537.16;4192287;34;19910;-82
2022/10/04 04:26:56;;;;;;;;;;;13.70;79.90;;;-151.14;100.00;62537.16;4215196;34;19912;-82
2022/10/04 04:29:27;;;;;;;;;;;13.70;79.90;;;-151.14;100.00;62537.16;4214666;34;19904;-82
2022/10/04 04:31:58;;;;;;;;;;;13.70;80.00;;;-151.14;100.00;62537.16;4191988;34;20321;-82
2022/10/04 04:34:29;;;;;;;;;;;13.70;79.90;;;-151.14;100.00;62537.16;4215207;34;19904;-82
2022/10/04 04:37:00;;;;;;;;;;;13.70;79.90;;;12.77;100.00;62537.16;4169420;34;19911;-82
2022/10/04 04:39:39;;;;;;;;;;;13.70;79.90;;;-151.14;100.00;62537.16;4214590;34;20225;-82
2022/10/04 04:42:16;;;;;;;;;;;13.70;80.00;;;-151.14;100.00;62537.16;4191912;34;19918;-82
2022/10/04 04:44:49;;;;;;;;;;;13.70;80.00;;;-151.14;100.00;62537.16;4215054;34;19904;-81
2022/10/04 04:47:30;;;;;;;;;;;13.70;80.00;;;-151.14;100.00;62537.16;4215123;34;20175;-82
2022/10/04 04:50:02;;;;;;;;;;;13.70;80.20;;;-151.14;100.00;62537.16;4214953;34;19903;-82
2022/10/04 04:52:30;;;;;;;;;;;13.90;80.00;;;-151.14;100.00;62537.16;4191886;34;19919;-82
2022/10/04 04:54:59;;;;;;;;;;;14.00;78.60;;;-151.14;100.00;62537.16;4191824;34;19904;-82
2022/10/04 04:57:29;;;;;;;;;;;14.10;78.30;;;-151.14;100.00;62537.16;4191541;34;19918;-82
2022/10/04 05:00:01;;;;;;;;;;;14.10;78.20;;;-151.14;100.00;62537.16;4191686;34;19904;-82
2022/10/04 05:02:33;;;;;;;;;;;14.00;78.10;;;-151.14;100.00;62537.16;4191581;34;19904;-82
2022/10/04 05:05:26;;;;;;;;;;;14.00;78.10;;;-151.14;100.00;62537.16;4192687;34;19903;-82
2022/10/04 05:08:13;;;;;;;;;;;14.00;78.40;;;-151.14;100.00;62537.16;4165373;34;19946;-82
2022/10/04 05:10:43;;;;;;;;;;;13.90;78.60;;;-151.14;100.00;62537.16;4191556;34;19904;-82
2022/10/04 05:13:13;;;;;;;;;;;13.90;78.80;;;-151.14;100.00;62537.16;4168872;34;19904;-82
2022/10/04 05:15:42;;;;;;;;;;;13.90;79.00;;;-151.14;100.00;62537.16;4168900;34;19904;-82
2022/10/04 05:18:29;;;;;;;;;;;13.80;79.10;;;-151.14;100.00;62537.16;4191331;34;19915;-82
2022/10/04 05:21:05;;;;;;;;;;;13.80;79.10;;;-151.14;100.00;62537.16;4168662;34;20092;-82
2022/10/04 05:23:34;;;;;;;;;;;13.80;79.30;;;-151.14;100.00;62537.16;4214623;34;19903;-82
2022/10/04 05:26:03;;;;;;;;;;;13.80;79.30;;;-151.14;100.00;62537.16;4191221;34;19910;-82
2022/10/04 05:28:33;;;;;;;;;;;13.80;79.20;;;-151.14;100.00;62537.16;4190834;34;19904;-81
2022/10/04 05:31:15;;;;;;;;;;;13.70;79.50;;;-151.14;100.00;62537.16;4214575;34;19904;-82
2022/10/04 05:33:46;;;;;;;;;;;13.70;79.60;;;-151.14;100.00;62537.16;4168571;34;20111;-82
2022/10/04 05:36:49;;;;;;;;;;;13.70;79.60;;;-151.14;100.00;62537.16;4168800;34;19911;-82
2022/10/04 05:39:24;;;;;;;;;;;13.70;80.50;;;-151.14;100.00;62537.16;4168059;34;19910;-82
2022/10/04 05:42:02;;;;;;;;;;;13.80;79.70;;;-151.14;100.00;62537.16;4168387;34;19903;-82
2022/10/04 05:44:36;;;;;;;;;;;13.70;79.70;;;-151.14;100.00;62537.16;4191275;34;19919;-82
2022/10/04 05:47:06;;;;;;;;;;;13.70;79.70;;;-151.14;100.00;62537.16;4168588;34;20202;-82
2022/10/04 05:49:42;;;;;;;;;;;13.70;79.70;;;-151.14;100.00;62537.16;4191010;34;19903;-82
2022/10/04 05:52:14;;;;;;;;;;;13.80;79.60;;;-151.14;100.00;62537.16;4214313;34;19911;-82
2022/10/04 05:54:43;;;;;;;;;;;13.70;79.60;;;-151.14;100.00;62537.16;4214265;34;19903;-82
2022/10/04 05:57:37;;;;;;;;;;;13.80;79.40;;;-151.14;100.00;62537.16;4191136;34;20245;-82
2022/10/04 06:00:13;;;;;;;;;;;13.90;79.10;;;-151.14;100.00;62537.16;4186318;34;20119;-82
2022/10/04 06:03:24;;;;;;;;;;;14.00;78.40;;;18.08;100.00;62537.16;4192265;34;19904;-82
2022/10/04 06:05:55;;;;;;;;;;;14.10;78.10;;;-151.14;100.00;62537.16;4184890;34;19903;-82
2022/10/04 06:08:37;;;;;;;;;;;14.20;77.60;;;-151.14;100.00;62537.16;4190546;34;19904;-82
2022/10/04 06:11:14;;;;;;;;;;;14.30;77.50;;;-151.14;100.00;62537.16;4191023;34;19911;-81
2022/10/04 06:14:09;;;;;;;;;;;14.30;77.60;;;-151.14;100.00;62537.16;4214241;34;20115;-82
2022/10/04 06:16:54;;;;;;;;;;;14.40;77.30;;;-151.14;100.00;62537.16;4214175;34;19926;-82
2022/10/04 06:20:19;;;;;;;;;;;14.50;78.30;;;-151.14;100.00;62537.16;4192166;34;19911;-82
2022/10/04 06:22:49;;;;;;;;;;;14.50;77.30;;;-151.14;100.00;62537.16;4193592;34;19935;-82
2022/10/04 06:25:21;;;;;;;;;;;14.60;77.10;;;-151.14;100.00;62537.16;4193391;34;19910;-82
2022/10/04 06:27:52;;;;;;;;;;;14.60;77.00;;;-151.14;100.00;62537.16;4210442;34;20110;-82
2022/10/04 06:30:21;;;;;;;;;;;14.70;76.90;;;-151.14;100.00;62537.16;4191688;34;20110;-82
2022/10/04 06:33:39;;;;;;;;;;;14.70;76.80;;;-151.14;100.00;62537.16;4170797;34;20126;-81
2022/10/04 06:36:32;;;;;;;;;;;14.70;77.00;;;-151.14;100.00;62537.16;4147335;34;20084;-82
2022/10/04 06:39:24;;;;;;;;;;;14.60;76.90;;;-151.14;100.00;62537.16;4176699;34;20222;-82
2022/10/04 06:42:32;;;;;;;;;;;14.60;77.00;;;-151.14;100.00;62537.16;4193310;34;19911;-82
2022/10/04 06:45:20;;;;;;;;;;;14.60;77.20;;;-151.14;100.00;62537.16;4166891;34;19912;-82
2022/10/04 06:48:09;;;;;;;;;;;14.60;77.30;;;-151.14;100.00;62537.16;4165177;34;20211;-82
2022/10/04 06:50:43;;;;;;;;;;;14.60;77.30;;;-151.14;100.00;62537.16;4165872;34;19927;-82
2022/10/04 06:53:22;;;;;;;;;;;14.70;77.40;;;-151.14;100.00;62537.16;4155621;34;19903;-82
2022/10/04 06:56:28;;;;;;;;;;;14.70;77.20;;;-151.14;100.00;62537.16;4170193;34;19911;-82
2022/10/04 06:59:35;;;;;;;;;;;14.70;77.20;;;-151.14;100.00;62537.16;4120186;34;20139;-81
2022/10/04 07:02:06;;;;;;;;;;;14.70;77.30;;;-151.14;100.00;62537.16;4193187;34;20122;-82
2022/10/04 07:04:38;;;;;;;;;;;14.70;77.30;;;102.80;100.00;62537.16;4170171;34;20322;-82
2022/10/04 07:07:25;;;;;;;;;;;14.80;77.40;;;13.92;100.00;62537.16;4170312;34;19910;-82
2022/10/04 07:09:57;;;;;;;;;;;14.80;77.30;;;-151.14;100.00;62537.16;4192887;34;19910;-82
2022/10/04 07:12:25;;;;;;;;;;;14.80;77.00;;;-151.14;100.00;62537.16;4193024;34;19904;-81
2022/10/04 07:14:55;;;;;;;;;;;14.80;77.10;;;-151.14;100.00;62537.16;4143067;34;19904;-82
2022/10/04 07:17:26;;;;;;;;;;;14.90;76.90;;;-151.14;100.00;62537.16;4165665;34;19904;-82
2022/10/04 07:19:54;;;;;;;;;;;14.90;76.80;;;-151.14;100.00;62537.16;4165641;34;19911;-82
2022/10/04 07:22:28;;;;;;;;;;;14.80;76.70;;;-151.14;100.00;62537.16;4142895;34;19904;-82
2022/10/04 07:25:03;;;;;;;;;;;14.80;76.70;;;-151.14;100.00;62537.16;4168917;34;19911;-82
2022/10/04 07:27:34;;;;;;;;;;;14.80;76.90;;;-151.14;100.00;62537.16;4192341;34;20118;-81
2022/10/04 07:30:12;;;;;;;;;;;14.70;77.00;;;-151.14;100.00;62537.16;4169451;34;19910;-82
2022/10/04 07:32:44;;;;;;;;;;;14.70;77.30;;;-151.14;100.00;62537.16;4192759;34;19903;-81
2022/10/04 07:35:34;;;;;;;;;;;14.60;77.30;;;-151.14;100.00;62537.16;4192727;34;19910;-82
2022/10/04 07:38:10;;;;;;;;;;;14.60;77.50;;;-151.14;100.00;62537.16;4192370;34;19904;-81
2022/10/04 07:40:40;;;;;;;;;;;14.60;77.70;;;-151.14;100.00;62537.16;4169752;34;20111;-81
2022/10/04 07:43:12;;;;;;;;;;;14.60;77.70;;;-151.14;100.00;62537.16;4192735;34;19903;-81
2022/10/04 07:45:41;;;;;;;;;;;14.70;77.60;;;13.83;100.00;62537.16;4215715;34;19903;-81
2022/10/04 07:48:14;;;;;;;;;;;14.70;77.40;;;-151.14;100.00;62537.16;4192057;34;19904;-82
2022/10/04 07:50:46;;;;;;;;;;;14.70;77.40;;;18.09;100.00;62537.16;4215650;34;19914;-82
2022/10/04 07:53:17;;;;;;;;;;;14.80;77.20;;;-151.14;100.00;62537.16;4215654;34;19903;-82
2022/10/04 07:55:52;;;;;;;;;;;14.80;76.90;;;-151.14;100.00;62537.16;4215406;34;20119;-82
2022/10/04 07:58:35;;;;;;;;;;;14.80;76.80;;;-151.14;100.00;62537.16;4215323;34;19903;-82
2022/10/04 08:01:07;;;;;;;;;;;14.80;76.90;;;13.79;100.00;62537.16;4192409;34;19903;-81
2022/10/04 08:03:48;;;;;;;;;;;14.70;77.00;;;-151.14;100.00;62537.16;4192546;34;19911;-82
2022/10/04 08:06:19;;;;;;;;;;;14.70;77.10;;;-151.14;100.00;62537.16;4192339;34;19915;-82
2022/10/04 08:09:03;;;;;;;;;;;14.70;77.20;;;-151.14;100.00;62537.16;4191988;34;20119;-82
2022/10/04 08:11:38;;;;;;;;;;;14.70;77.30;;;-151.14;100.00;62537.16;4215290;34;19905;-82
2022/10/04 08:14:18;;;;;;;;;;;14.70;77.30;;;-151.14;100.00;62537.16;4192435;34;19904;-82
2022/10/04 08:16:53;;;;;;;;;;;14.70;77.40;;;-151.14;100.00;62537.16;4192372;34;19903;-81
2022/10/04 08:19:36;;;;;;;;;;;14.60;77.40;;;-151.14;100.00;62537.16;4191829;34;19904;-82
2022/10/04 08:22:14;;;;;;;;;;;14.60;77.50;;;-151.14;100.00;62537.16;4215167;34;19910;-82
2022/10/04 08:24:54;;;;;;;;;;;14.60;77.60;;;-151.14;100.00;62537.16;4215280;34;19904;-82
2022/10/04 08:27:39;;;;;;;;;;;14.50;77.70;;;-151.14;100.00;62537.16;4215128;34;19904;-82
2022/10/04 08:30:11;;;;;;;;;;;14.50;77.70;;;-151.14;100.00;62537.16;4215273;34;20218;-82
2022/10/04 08:32:53;;;;;;;;;;;14.50;77.90;;;-151.14;100.00;62537.16;4191963;34;19903;-82
2022/10/04 08:35:36;;;;;;;;;;;14.50;77.90;;;-151.14;100.00;62537.16;4215216;34;19904;-82
2022/10/04 08:38:33;;;;;;;;;;;14.40;77.90;;;-151.14;100.00;62537.16;4191595;34;19904;-82
2022/10/04 08:41:52;;;;;;;;;;;14.40;78.00;;;-151.14;100.00;62537.16;4191747;34;19904;-82
2022/10/04 08:45:33;;;;;;;;;;;14.40;78.00;;;-151.14;100.00;62537.16;4165333;34;20199;-82
2022/10/04 08:48:31;;;;;;;;;;;14.40;78.00;;;-151.14;100.00;62537.16;4109831;34;20147;-82
2022/10/04 08:52:07;;;;;;;;;;;14.40;78.10;;;-151.14;100.00;62537.16;4190296;34;20118;-83
2022/10/04 08:55:06;;;;;;;;;;;14.50;78.00;;;-151.14;100.00;62537.16;4088528;34;19905;-82
2022/10/04 08:58:01;;;;;;;;;;;14.50;77.90;;;-151.14;100.00;62537.16;4087940;34;19905;-82
2022/10/04 09:00:38;;;;;;;;;;;14.50;77.80;;;-151.14;100.00;62537.16;4169078;34;19911;-82
2022/10/04 09:04:14;;;;;;;;;;;14.40;77.70;;;-151.14;100.00;62537.16;4168993;34;19903;-82
2022/10/04 09:06:45;;;;;;;;;;;14.40;77.80;;;-151.14;100.00;62537.16;4151894;34;19911;-83
2022/10/04 09:10:15;;;;;;;;;;;14.50;78.00;;;-151.14;100.00;62537.16;4192278;34;20119;-83
2022/10/04 09:12:56;;;;;;;;;;;14.40;77.80;;;-151.14;100.00;62537.16;4164341;34;19904;-83
2022/10/04 09:15:45;;;;;;;;;;;14.40;77.90;;;15.43;100.00;62537.16;4164519;34;19904;-82
2022/10/04 09:18:46;;;;;;;;;;;14.40;78.00;;;-151.14;100.00;62537.16;4138850;34;19904;-83
2022/10/04 09:21:26;;;;;;;;;;;14.40;78.00;;;-151.14;100.00;62537.16;4165143;34;19912;-83
2022/10/04 09:24:19;;;;;;;;;;;14.40;78.10;;;-151.14;100.00;62537.16;4164442;34;19903;-83
2022/10/04 09:26:51;;;;;;;;;;;14.40;78.20;;;-151.14;100.00;62537.16;4186918;34;19904;-82
2022/10/04 09:29:48;;;;;;;;;;;14.30;78.20;;;-151.14;100.00;62537.16;4141311;34;19912;-83
2022/10/04 09:32:28;;;;;;;;;;;14.30;78.20;;;-151.14;100.00;62537.16;4164036;34;19904;-82
2022/10/04 09:35:55;;;;;;;;;;;14.30;78.30;;;-151.14;100.00;62537.16;4141753;34;19905;-83
2022/10/04 09:39:02;;;;;;;;;;;14.30;78.20;;;-151.14;100.00;62537.16;4157261;34;19911;-82
2022/10/04 09:41:37;;;;;;;;;;;14.30;78.30;;;13.38;100.00;62537.16;4141615;34;19904;-82
2022/10/04 09:44:44;;;;;;;;;;;14.20;78.20;;;13.38;100.00;62537.16;4141702;34;19904;-83
2022/10/04 09:47:36;;;;;;;;;;;14.30;78.30;;;13.38;100.00;94804.97;4141573;34;19904;-82
2022/10/04 09:51:07;;;;;;;;;;;14.20;78.20;;;-151.14;100.00;62537.16;4141624;34;19905;-83
2022/10/04 09:53:46;;;;;;;;;;;14.30;78.30;;;-151.14;100.00;62537.16;4106283;34;19911;-83
2022/10/04 09:56:32;;;;;;;;;;;14.20;78.30;;;13.29;100.00;62537.16;4164098;34;20226;-82
2022/10/04 09:59:25;;;;;;;;;;;14.20;78.40;;;13.29;100.00;82957.75;4141098;34;20319;-82
2022/10/04 10:02:42;;;;;;;;;;;14.20;78.30;;;-151.14;100.00;62537.16;4164713;34;19904;-83
2022/10/04 10:05:23;;;;;;;;;;;14.20;78.30;;;13.27;100.00;62537.16;4142699;34;19913;-83
2022/10/04 10:07:54;;;;;;;;;;;14.20;78.40;;;13.27;100.00;89162.81;4140917;34;19904;-82
2022/10/04 10:13:41;;;;;;;;;;;14.20;78.40;;;-151.14;100.00;62537.16;4163787;34;19903;-82
2022/10/04 10:16:26;;;;;;;;;;;14.20;78.40;;;13.27;100.00;62537.16;4141677;34;19904;-82
2022/10/04 10:19:06;;;;;;;;;;;14.20;78.40;;;13.27;100.00;62537.16;4185916;34;19904;-82
2022/10/04 10:21:52;;;;;;;;;;;14.20;78.30;;;13.27;100.00;82944.63;4163549;34;19908;-82
2022/10/04 10:24:46;;;;;;;;;;;14.20;78.30;;;-151.14;100.00;62537.16;4163691;34;19904;-82
2022/10/04 10:27:47;;;;;;;;;;;14.20;78.20;;;13.30;100.00;82948.91;4186410;34;19905;-83
2022/10/04 10:30:21;;;;;;;;;;;14.20;78.20;;;-151.14;100.00;62537.16;4186552;34;20093;-83
2022/10/04 10:33:41;;;;;;;;;;;14.20;78.10;;;-151.14;100.00;62537.16;4163496;34;19904;-83
2022/10/04 10:36:33;;;;;;;;;;;14.20;78.10;;;-151.14;100.00;62537.16;4186170;34;20111;-82
2022/10/04 10:39:18;;;;;;;;;;;14.20;78.10;;;-151.14;100.00;62537.16;4162921;34;20115;-82
2022/10/04 10:42:05;;;;;;;;;;;14.20;78.10;;;-151.14;100.00;62537.16;4186216;34;19904;-82
2022/10/04 10:44:56;;;;;;;;;;;14.20;78.00;;;-151.14;100.00;62537.16;4186394;34;19918;-83
2022/10/04 10:47:36;;;;;;;;;;;14.20;78.00;;;-151.14;100.00;62537.16;4175013;34;19904;-83
2022/10/04 10:50:21;;;;;;;;;;;14.20;78.00;;;-151.14;100.00;62537.16;4186264;34;19905;-82
2022/10/04 10:53:24;;;;;;;;;;;14.30;78.00;;;-151.14;100.00;62537.16;4186229;34;20134;-82
2022/10/04 10:56:45;;;;;;;;;;;14.20;77.90;;;-151.14;100.00;62537.16;4086607;34;19904;-82
2022/10/04 10:59:53;;;;;;;;;;;14.30;78.00;;;-151.14;100.00;62537.16;4185543;34;19911;-82
2022/10/04 11:03:19;;;;;;;;;;;14.20;77.90;;;-151.14;100.00;62537.16;4140918;34;20104;-82
2022/10/04 11:06:25;;;;;;;;;;;14.30;78.00;;;-151.14;100.00;62537.16;4114354;34;20223;-83
2022/10/04 11:09:32;;;;;;;;;;;14.20;77.90;;;-151.14;100.00;62537.16;4149184;34;19924;-82
2022/10/04 11:12:46;;;;;;;;;;;14.20;78.00;;;-151.14;100.00;62537.16;4172666;34;19904;-82
2022/10/04 11:16:00;;;;;;;;;;;14.20;78.00;;;-151.14;100.00;62537.16;4193964;34;19903;-82
2022/10/04 11:19:06;;;;;;;;;;;14.20;78.10;;;-151.14;100.00;62537.16;4169628;34;19904;-82
2022/10/04 11:22:06;;;;;;;;;;;14.20;78.20;;;-151.14;100.00;62537.16;4193873;34;19910;-83
2022/10/04 11:25:24;;;;;;;;;;;14.20;78.30;;;-151.14;100.00;62537.16;4192994;34;19904;-82
2022/10/04 11:27:56;;;;;;;;;;;14.20;78.40;;;-151.14;100.00;62537.16;4193212;34;19919;-82
2022/10/04 11:30:25;;;;;;;;;;;14.20;78.30;;;-151.14;100.00;62537.16;4193824;34;20195;-82
2022/10/04 11:33:44;;;;;;;;;;;14.10;78.30;;;-151.14;100.00;62537.16;4192661;34;19903;-83
2022/10/04 11:36:32;;;;;;;;;;;14.10;78.20;;;-151.14;100.00;62537.16;4119292;34;19910;-82
2022/10/04 11:39:21;;;;;;;;;;;14.10;78.20;;;-151.14;100.00;62537.16;4192361;34;19919;-82
2022/10/04 11:41:55;;;;;;;;;;;14.20;78.20;;;13.30;100.00;82957.75;4169987;34;19904;-82
2022/10/04 11:45:04;;;;;;;;;;;14.10;78.30;;;-151.14;100.00;62537.16;4142930;34;20204;-82
2022/10/04 11:47:42;;;;;;;;;;;14.20;78.30;;;13.25;100.00;62537.16;4165875;34;19904;-82
2022/10/04 11:50:38;;;;;;;;;;;14.20;78.30;;;-151.14;100.00;62537.16;4165119;34;19911;-82
2022/10/04 11:53:33;;;;;;;;;;;14.20;78.30;;;-151.14;100.00;62537.16;4165229;34;20247;-82
2022/10/04 11:56:15;;;;;;;;;;;14.10;78.30;;;13.24;100.00;62537.16;4165403;34;19904;-82
2022/10/04 11:59:13;;;;;;;;;;;14.10;78.30;;;13.24;100.00;82940.38;4164723;34;19904;-82
2022/10/04 12:02:15;;;;;;;;;;;14.10;78.40;;;-151.14;100.00;62537.16;4142724;34;19912;-82
2022/10/04 12:05:19;;;;;;;;;;;14.10;78.30;;;13.23;100.00;82938.97;4165367;34;19904;-82
2022/10/04 12:08:00;;;;;;;;;;;14.20;78.40;;;18.08;100.00;62537.16;4164701;34;20199;-82